Time;durP1;ratioP1;P1;durP2;ratioP2;P2;SDS_P1;SDS_P2;PMS_P1;PMS_P2;Temp;Humidity;BMP_temperature;BMP_pressure;BME280_temperature;BME280_humidity;BME280_pressure;Samples;Min_cycle;Max_cycle;Signal;HPM_P1;HPM_P2
2023/12/07 07:01:27;;;;;;;0.40;0.40;;;4.60;99.90;7.00;101502.00;;;;6087173;22;4516048;-72
2023/12/07 07:04:01;;;;;;;5.67;3.00;;;4.50;99.90;6.90;101515.00;;;;6251184;22;20200;-72
2023/12/07 07:06:33;;;;;;;2.27;2.07;;;4.60;99.90;6.60;101502.00;;;;6251868;22;20141;-72
2023/12/07 07:09:10;;;;;;;1.27;1.17;;;4.40;99.90;6.30;101500.00;;;;6277034;22;20159;-72
2023/12/07 07:11:37;;;;;;;0.77;0.77;;;4.30;99.90;6.40;101508.00;;;;6251707;22;20151;-71
2023/12/07 07:14:11;;;;;;;2.50;2.30;;;4.30;99.90;6.80;101496.00;;;;6251821;22;20157;-72
2023/12/07 07:16:45;;;;;;;4.10;3.23;;;4.40;99.90;6.60;101507.00;;;;6277935;22;20220;-72
2023/12/07 07:19:21;;;;;;;2.50;2.30;;;4.30;99.90;6.80;101495.00;;;;6276539;22;20885;-72
2023/12/07 07:21:51;;;;;;;7.60;4.50;;;4.30;99.90;6.50;101500.00;;;;6227024;22;20187;-72
2023/12/07 07:24:17;;;;;;;3.27;2.97;;;4.20;99.90;6.60;101457.00;;;;6226116;22;20162;-72
2023/12/07 07:26:51;;;;;;;4.77;3.40;;;4.30;99.90;6.40;101472.00;;;;6251472;22;20636;-72
2023/12/07 07:29:20;;;;;;;2.00;1.57;;;4.20;99.90;6.30;101490.00;;;;6277859;22;20160;-72
2023/12/07 07:31:46;;;;;;;1.50;1.43;;;4.10;99.90;6.50;101495.00;;;;6251726;22;20155;-72
2023/12/07 07:34:24;;;;;;;1.17;0.47;;;4.20;99.90;6.80;101488.00;;;;6278545;22;20191;-72
2023/12/07 07:36:58;;;;;;;2.00;1.90;;;4.20;99.90;6.50;101491.00;;;;6276194;22;20161;-72
2023/12/07 07:39:29;;;;;;;4.47;2.53;;;4.20;99.90;6.90;101484.00;;;;6278281;22;20155;-71
2023/12/07 07:42:06;;;;;;;4.87;2.43;;;4.20;99.90;6.50;101494.00;;;;6225503;22;20231;-71
2023/12/07 07:44:41;;;;;;;2.17;1.97;;;4.10;99.90;6.50;101457.00;;;;6225383;22;20157;-71
2023/12/07 07:47:18;;;;;;;4.67;3.50;;;4.10;99.90;6.40;101466.00;;;;6226000;22;20211;-71
2023/12/07 07:49:44;;;;;;;1.43;1.33;;;3.90;99.90;6.20;101485.00;;;;6225919;22;20161;-71
2023/12/07 07:52:13;;;;;;;1.57;1.47;;;4.00;99.90;6.30;101481.00;;;;6225742;22;20167;-71
2023/12/07 07:54:52;;;;;;;3.30;2.73;;;3.90;99.90;6.30;101426.00;;;;6250505;22;20188;-71
2023/12/07 07:57:18;;;;;;;1.50;1.30;;;4.00;99.90;6.40;101475.00;;;;6226736;22;20157;-72
2023/12/07 08:00:10;;;;;;;2.47;2.30;;;4.00;99.90;6.30;101447.00;;;;6250561;22;20157;-71
2023/12/07 08:02:44;;;;;;;2.80;2.23;;;3.90;99.90;6.60;101489.00;;;;6220244;23;20175;-72
2023/12/07 08:05:22;;;;;;;3.07;2.47;;;4.10;99.90;6.40;101480.00;;;;6219744;23;20149;-72
2023/12/07 08:07:51;;;;;;;3.50;2.57;;;4.10;99.90;6.70;101483.00;;;;6220436;23;20146;-72
2023/12/07 08:10:28;;;;;;;0.30;0.30;;;4.20;99.90;6.50;101487.00;;;;6195045;23;20242;-72
2023/12/07 08:13:00;;;;;;;2.10;1.43;;;4.20;99.90;6.70;101475.00;;;;6220868;23;20157;-72
2023/12/07 08:15:32;;;;;;;2.20;1.43;;;4.30;99.90;6.80;101463.00;;;;6220731;23;20142;-72
2023/12/07 08:18:03;;;;;;;2.63;2.37;;;4.30;99.90;6.70;101479.00;;;;6220299;23;20237;-73
2023/12/07 08:20:35;;;;;;;1.33;1.30;;;4.40;99.90;6.60;101445.00;;;;6220082;23;20157;-72
2023/12/07 08:23:10;;;;;;;1.73;1.63;;;4.30;99.90;6.70;101476.00;;;;6246963;23;20668;-72
2023/12/07 08:25:43;;;;;;;5.67;4.53;;;4.30;99.90;7.00;101433.00;;;;6195325;23;20153;-72
2023/12/07 08:28:12;;;;;;;1.53;1.43;;;4.40;99.90;6.80;101431.00;;;;6220689;23;20150;-72
2023/12/07 08:30:38;;;;;;;1.10;1.10;;;4.40;99.90;7.20;101462.00;;;;6219975;23;20165;-72
2023/12/07 08:33:07;;;;;;;0.77;0.77;;;4.50;99.90;6.80;101425.00;;;;6246800;23;20149;-72
2023/12/07 08:35:38;;;;;;;0.83;0.80;;;4.40;99.90;6.50;101478.00;;;;6247229;23;20153;-72
2023/12/07 08:38:15;;;;;;;4.30;2.90;;;4.30;99.90;6.70;101492.00;;;;6195185;23;20177;-73
2023/12/07 08:40:50;;;;;;;1.37;1.37;;;4.30;99.90;6.50;101450.00;;;;6220738;23;20510;-72
2023/12/07 08:43:28;;;;;;;4.17;2.70;;;4.40;99.90;7.10;101486.00;;;;6194454;23;20264;-72
2023/12/07 08:46:00;;;;;;;1.33;1.07;;;4.50;99.90;7.20;101483.00;;;;6219774;23;20157;-71
2023/12/07 08:48:34;;;;;;;2.00;0.93;;;4.60;99.90;7.20;101485.00;;;;6220021;23;20471;-72
2023/12/07 08:51:10;;;;;;;4.17;1.67;;;4.60;99.90;6.90;101436.00;;;;6220038;23;20217;-72
2023/12/07 08:53:38;;;;;;;2.23;1.73;;;4.60;99.90;7.00;101471.00;;;;6220261;23;20157;-71
2023/12/07 08:56:15;;;;;;;2.63;1.67;;;4.70;99.90;7.20;101482.00;;;;6220175;23;20152;-72
2023/12/07 08:58:53;;;;;;;2.37;1.87;;;4.70;99.90;6.80;101465.00;;;;6195634;23;20580;-72
2023/12/07 09:01:26;;;;;;;4.40;4.07;;;4.60;99.90;7.00;101437.00;;;;6219181;23;20168;-72
2023/12/07 09:04:01;;;;;;;2.10;1.80;;;4.60;99.90;7.10;101460.00;;;;6219762;23;20177;-72
2023/12/07 09:06:32;;;;;;;4.17;2.37;;;4.70;99.90;7.30;101471.00;;;;6246341;23;20157;-72
2023/12/07 09:09:11;;;;;;;2.03;1.93;;;4.90;99.90;7.50;101478.00;;;;6194627;23;20159;-72
2023/12/07 09:11:43;;;;;;;2.77;2.30;;;5.00;99.90;7.60;101456.00;;;;6218371;23;20155;-72
2023/12/07 09:14:17;;;;;;;1.43;1.37;;;5.00;99.90;8.10;101469.00;;;;6218572;23;20507;-71
2023/12/07 09:16:54;;;;;;;7.40;3.47;;;5.30;99.90;7.60;101476.00;;;;6193343;23;20574;-72
2023/12/07 09:19:31;;;;;;;5.57;3.50;;;5.30;99.90;7.70;101469.00;;;;6218744;23;20509;-71
2023/12/07 09:22:05;;;;;;;0.93;0.93;;;5.30;99.90;7.50;101456.00;;;;6193245;23;20180;-72
2023/12/07 09:24:40;;;;;;;2.10;1.90;;;5.10;99.90;7.70;101454.00;;;;6244286;23;20459;-71
2023/12/07 09:27:14;;;;;;;4.77;3.57;;;5.10;99.90;7.30;101451.00;;;;6193284;23;20397;-71
2023/12/07 09:29:48;;;;;;;3.63;2.37;;;5.00;99.90;7.40;101438.00;;;;6218545;23;20181;-72
2023/12/07 09:32:22;;;;;;;2.27;2.03;;;5.10;99.90;7.40;101442.00;;;;6219081;23;20204;-71
2023/12/07 09:34:54;;;;;;;0.67;0.67;;;5.20;99.90;7.30;101449.00;;;;6219824;23;20154;-71
2023/12/07 09:37:20;;;;;;;0.60;0.60;;;5.10;99.90;7.80;101429.00;;;;6194396;23;20495;-71
2023/12/07 09:39:51;;;;;;;7.33;3.87;;;5.20;99.90;7.60;101446.00;;;;6246084;23;20142;-71
2023/12/07 09:42:17;;;;;;;3.37;2.90;;;5.20;99.90;7.90;101428.00;;;;6194033;23;20295;-71
2023/12/07 09:44:46;;;;;;;8.40;2.27;;;5.30;99.90;7.90;101443.00;;;;6246687;23;20459;-71
2023/12/07 09:47:18;;;;;;;3.17;2.13;;;5.40;99.90;8.00;101426.00;;;;6193905;23;20165;-71
2023/12/07 09:49:55;;;;;;;4.77;2.67;;;5.50;99.90;7.20;101419.00;;;;6246054;23;20573;-71
2023/12/07 09:52:26;;;;;;;5.27;3.80;;;5.40;99.90;7.70;101402.00;;;;6219328;23;20186;-71
2023/12/07 09:54:56;;;;;;;3.33;2.73;;;5.40;99.90;7.90;101365.00;;;;6194394;23;20157;-71
2023/12/07 09:57:23;;;;;;;9.83;4.70;;;5.60;99.90;7.80;101404.00;;;;6219595;23;20459;-71
2023/12/07 09:59:49;;;;;;;4.67;3.90;;;5.60;99.90;7.20;101393.00;;;;6219457;22;20237;-71
2023/12/07 10:02:18;;;;;;;5.23;3.57;;;5.40;99.90;8.00;101392.00;;;;6275144;22;20635;-71
2023/12/07 10:05:10;;;;;;;1.90;1.80;;;5.50;99.90;8.30;101402.00;;;;6224674;22;20217;-71
2023/12/07 10:07:50;;;;;;;1.93;1.83;;;5.70;99.90;7.80;101400.00;;;;6249489;22;20234;-71
2023/12/07 10:10:27;;;;;;;3.73;1.87;;;5.80;99.90;8.20;101396.00;;;;6224531;22;20236;-72
2023/12/07 10:12:59;;;;;;;1.97;1.87;;;5.90;99.90;9.00;101402.00;;;;6223481;22;20171;-71
2023/12/07 10:15:33;;;;;;;2.90;2.67;;;6.30;99.90;8.40;101359.00;;;;6249902;22;20565;-71
2023/12/07 10:18:07;;;;;;;4.50;2.93;;;6.30;99.90;8.80;101414.00;;;;6249433;22;20137;-72
2023/12/07 10:20:48;;;;;;;2.27;2.17;;;6.30;99.90;9.30;101401.00;;;;6249705;22;20161;-71
2023/12/07 10:33:36;;;;;;;4.70;4.23;;;5.60;99.90;7.70;101346.00;;;;5070335;28;20540;-73
2023/12/07 10:36:13;;;;;;;6.70;5.10;;;5.80;99.90;8.70;101341.00;;;;5065986;28;20188;-73
2023/12/07 10:38:52;;;;;;;0.87;0.73;;;6.30;99.90;9.10;101352.00;;;;5050262;28;20209;-71
2023/12/07 10:41:27;;;;;;;4.33;2.23;;;6.60;99.90;9.40;101371.00;;;;5048841;28;20538;-71
2023/12/07 10:44:09;;;;;;;2.00;1.83;;;6.90;99.90;9.40;101374.00;;;;5065923;28;20197;-71
2023/12/07 10:46:50;;;;;;;2.43;2.33;;;7.00;99.90;9.70;101376.00;;;;5036252;28;20664;-71
2023/12/07 10:49:26;;;;;;;1.20;1.20;;;7.30;99.90;10.10;101356.00;;;;5041696;28;20221;-71
2023/12/07 10:52:06;;;;;;;2.33;1.47;;;7.40;99.90;9.90;101335.00;;;;5045432;28;20712;-71
2023/12/07 10:54:49;;;;;;;1.63;1.53;;;7.40;99.90;10.40;101350.00;;;;5032298;28;20205;-71
2023/12/07 10:57:28;;;;;;;4.07;3.77;;;7.60;99.90;9.90;101346.00;;;;5038912;28;20200;-73
2023/12/07 11:00:07;;;;;;;0.93;0.93;;;7.50;99.90;9.80;101340.00;;;;5047699;28;20195;-71
2023/12/07 11:02:33;;;;;;;1.60;0.90;;;7.30;99.90;9.50;101338.00;;;;5032870;28;20200;-71
2023/12/07 11:05:03;;;;;;;7.10;3.40;;;7.20;99.90;9.40;101338.00;;;;5026891;28;20182;-74
2023/12/07 11:07:52;;;;;;;6.27;3.33;;;7.20;99.90;8.90;101334.00;;;;5045083;28;20658;-77
2023/12/07 11:10:41;;;;;;;1.87;1.77;;;6.90;99.90;10.00;101335.00;;;;5046271;28;20273;-77
2023/12/07 11:16:50;;;;;;;5.37;2.60;;;7.40;99.90;9.90;101341.00;;;;5044665;28;20194;-73
2023/12/07 11:19:43;;;;;;;3.30;2.60;;;7.30;99.90;10.20;101331.00;;;;5022352;28;20436;-73
2023/12/07 11:22:38;;;;;;;1.53;1.43;;;7.40;99.90;9.90;101324.00;;;;5048472;28;20440;-73
2023/12/07 11:25:22;;;;;;;3.13;2.20;;;7.40;99.90;10.10;101296.00;;;;5042819;28;20715;-73
2023/12/07 11:28:35;;;;;;;0.40;0.40;;;7.40;99.90;10.70;101336.00;;;;5050993;28;20193;-73
2023/12/07 11:31:40;;;;;;;1.67;1.53;;;7.60;99.90;10.30;101341.00;;;;5028017;28;20230;-73
2023/12/07 11:34:13;;;;;;;3.50;1.63;;;7.60;99.90;9.80;101325.00;;;;5041030;28;20667;-73
2023/12/07 11:36:57;;;;;;;4.67;3.33;;;7.50;99.90;10.10;101285.00;;;;5048490;28;20189;-73
2023/12/07 11:39:29;;;;;;;1.83;1.00;;;7.50;99.90;10.00;101304.00;;;;5035789;28;20194;-73
2023/12/07 11:42:36;;;;;;;2.37;1.57;;;7.50;99.90;9.90;101292.00;;;;5044449;28;20273;-73
2023/12/07 11:45:23;;;;;;;1.50;1.10;;;7.40;99.90;10.20;101296.00;;;;5025015;28;20647;-73
2023/12/07 11:48:24;;;;;;;3.93;2.47;;;7.50;99.90;10.40;101282.00;;;;5015009;28;20190;-73
2023/12/07 11:51:10;;;;;;;2.60;2.33;;;7.70;99.90;10.00;101276.00;;;;5034821;28;20226;-73
2023/12/07 11:53:37;;;;;;;2.73;1.23;;;7.60;99.90;9.70;101234.00;;;;5031220;28;20696;-74
2023/12/07 11:56:13;;;;;;;2.60;2.40;;;7.30;99.90;10.10;101272.00;;;;5017168;28;20274;-78
2023/12/07 11:58:42;;;;;;;0.90;0.90;;;7.30;99.90;9.30;101256.00;;;;5015002;28;20643;-73
2023/12/07 12:01:16;;;;;;;1.53;1.43;;;7.10;99.90;9.50;101245.00;;;;5030386;28;20192;-73
2023/12/07 12:04:09;;;;;;;2.23;2.03;;;6.90;99.90;9.10;101214.00;;;;5035887;28;20245;-73
2023/12/07 12:07:00;;;;;;;1.03;1.03;;;6.90;99.90;9.10;101230.00;;;;5014358;28;20203;-73
2023/12/07 12:09:35;;;;;;;0.20;0.20;;;6.80;99.90;10.20;101229.00;;;;5031092;28;20192;-73
2023/12/07 12:12:32;;;;;;;2.30;2.10;;;7.00;99.90;8.80;101217.00;;;;5029849;28;20210;-73
2023/12/07 12:15:10;;;;;;;2.23;2.00;;;6.90;99.90;9.50;101219.00;;;;5010227;28;20206;-73
2023/12/07 12:17:44;;;;;;;1.23;1.13;;;6.90;99.90;9.60;101171.00;;;;5032046;28;20240;-74
2023/12/07 12:20:25;;;;;;;2.10;0.83;;;6.90;99.90;9.30;101162.00;;;;5019006;28;20201;-73
2023/12/07 12:23:17;;;;;;;0.50;0.47;;;6.90;99.90;9.90;101189.00;;;;5017154;28;20187;-73
2023/12/07 12:26:38;;;;;;;4.10;2.37;;;7.10;99.90;9.30;101152.00;;;;5030958;28;20183;-73
2023/12/07 12:29:22;;;;;;;9.60;1.50;;;7.00;99.90;9.40;101146.00;;;;5014049;28;20199;-73
2023/12/07 12:31:57;;;;;;;0.37;0.30;;;6.90;99.90;9.10;101155.00;;;;5062178;28;20238;-73
2023/12/07 12:34:48;;;;;;;0.97;0.97;;;6.70;99.90;9.50;101160.00;;;;5017064;28;20527;-73
2023/12/07 12:37:27;;;;;;;2.70;1.90;;;6.80;99.90;9.40;101162.00;;;;5038079;28;20179;-73
2023/12/07 12:40:11;;;;;;;2.50;2.00;;;6.90;99.90;9.10;101155.00;;;;5026452;28;20278;-73
2023/12/07 12:42:49;;;;;;;1.33;1.07;;;6.80;99.90;9.50;101122.00;;;;5017181;28;20218;-73
2023/12/07 12:45:30;;;;;;;1.03;0.93;;;6.90;99.90;9.60;101151.00;;;;5030624;28;20182;-73
2023/12/07 12:48:09;;;;;;;2.77;2.67;;;7.00;99.90;9.60;101146.00;;;;5028865;28;20190;-73
2023/12/07 12:50:41;;;;;;;1.03;0.97;;;7.00;99.90;9.40;101139.00;;;;5016327;28;20186;-73
2023/12/07 12:53:13;;;;;;;0.63;0.47;;;6.90;99.90;9.50;101111.00;;;;5029080;28;20326;-73
2023/12/07 12:55:57;;;;;;;4.53;2.30;;;6.90;99.90;9.50;101147.00;;;;5032319;28;20185;-73
2023/12/07 12:58:44;;;;;;;2.03;1.93;;;6.90;99.90;9.10;101142.00;;;;5016883;28;20195;-73
2023/12/07 13:01:21;;;;;;;4.67;2.23;;;6.80;99.90;9.00;101111.00;;;;5032776;28;20222;-73
2023/12/07 13:04:07;;;;;;;3.40;2.53;;;6.70;99.90;9.20;101119.00;;;;5020847;28;20192;-73
2023/12/07 13:06:39;;;;;;;0.60;0.60;;;6.80;99.90;8.90;101138.00;;;;5060192;28;20214;-73
2023/12/07 13:09:16;;;;;;;3.70;1.90;;;6.70;99.90;9.10;101139.00;;;;5024837;28;20278;-73
2023/12/07 13:11:58;;;;;;;1.37;1.10;;;6.70;99.90;8.80;101137.00;;;;5025408;28;20245;-73
2023/12/07 13:14:38;;;;;;;1.30;0.87;;;6.70;99.90;8.80;101089.00;;;;5030115;28;20246;-73
2023/12/07 13:17:16;;;;;;;2.77;1.10;;;6.60;99.90;9.20;101136.00;;;;5034002;28;20273;-73
2023/12/07 13:19:48;;;;;;;3.93;1.00;;;6.70;99.90;8.90;101132.00;;;;5025579;28;20282;-71
2023/12/07 13:22:25;;;;;;;2.40;2.23;;;6.70;99.90;9.50;101135.00;;;;5013154;28;20245;-70
2023/12/07 13:25:03;;;;;;;4.23;2.43;;;6.90;99.90;9.00;101109.00;;;;5013976;28;20236;-73
2023/12/07 13:27:44;;;;;;;5.13;2.63;;;6.70;99.90;9.00;101111.00;;;;5032414;28;20178;-73
2023/12/07 13:30:18;;;;;;;1.47;1.47;;;6.80;99.90;9.20;101115.00;;;;5023791;28;20198;-71
2023/12/07 13:32:47;;;;;;;2.00;1.80;;;6.80;99.90;9.40;101095.00;;;;5032406;28;20276;-71
2023/12/07 13:35:22;;;;;;;0.50;0.50;;;6.80;99.90;9.10;101087.00;;;;5030061;28;20675;-71
2023/12/07 13:37:53;;;;;;;3.13;2.83;;;6.80;99.90;9.50;101077.00;;;;5020846;28;20240;-70
2023/12/07 13:40:31;;;;;;;2.73;2.53;;;6.90;99.90;8.90;101074.00;;;;5032536;28;20550;-73
2023/12/07 13:43:03;;;;;;;1.60;0.97;;;6.70;99.90;8.20;101057.00;;;;5028527;28;20642;-73
2023/12/07 13:45:32;;;;;;;2.50;2.30;;;6.60;99.90;8.70;101054.00;;;;5027761;28;20190;-73
2023/12/07 13:48:03;;;;;;;1.60;1.17;;;6.50;99.90;9.00;101059.00;;;;5032601;28;20562;-73
2023/12/07 13:50:37;;;;;;;1.87;1.57;;;6.60;99.90;9.40;101068.00;;;;5033596;28;20520;-73
2023/12/07 13:53:10;;;;;;;0.57;0.57;;;6.80;99.90;8.80;101063.00;;;;5032092;28;20575;-73
2023/12/07 13:55:37;;;;;;;2.20;2.00;;;6.70;99.90;9.00;101019.00;;;;5033831;28;20190;-73
2023/12/07 13:58:14;;;;;;;2.73;0.83;;;6.70;99.90;9.40;101049.00;;;;5015859;28;20187;-73
2023/12/07 14:00:45;;;;;;;1.23;0.93;;;6.70;99.90;8.80;101037.00;;;;5023406;28;20183;-73
2023/12/07 14:03:22;;;;;;;3.30;2.43;;;6.60;99.90;9.20;101043.00;;;;5030327;28;20281;-73
2023/12/07 14:05:57;;;;;;;2.47;1.73;;;6.70;99.90;8.90;101001.00;;;;5031913;28;20181;-73
2023/12/07 14:08:31;;;;;;;1.47;1.37;;;6.60;99.90;9.10;101024.00;;;;5034939;28;20197;-73
2023/12/07 14:11:02;;;;;;;2.50;2.23;;;6.50;99.90;8.70;101020.00;;;;5033211;28;20185;-73
2023/12/07 14:13:46;;;;;;;3.13;2.83;;;6.50;99.90;9.00;101024.00;;;;5028723;28;20219;-70
2023/12/07 14:16:20;;;;;;;4.00;2.47;;;6.70;99.90;8.40;100981.00;;;;5013471;28;20181;-73
2023/12/07 14:18:58;;;;;;;2.80;2.10;;;6.50;99.90;8.70;100994.00;;;;5029693;28;20587;-73
2023/12/07 14:21:33;;;;;;;3.00;2.20;;;6.40;99.90;8.40;101003.00;;;;5024308;28;20734;-73
2023/12/07 14:24:01;;;;;;;1.63;1.37;;;6.40;99.90;8.60;100992.00;;;;5032623;28;20227;-73
2023/12/07 14:26:30;;;;;;;2.97;2.50;;;6.30;99.90;8.90;100975.00;;;;5014631;28;20242;-73
2023/12/07 14:28:59;;;;;;;2.20;2.10;;;6.40;99.90;9.10;100973.00;;;;5045424;28;20183;-73
2023/12/07 14:31:28;;;;;;;2.43;1.57;;;6.50;99.90;8.90;100962.00;;;;5037128;28;20227;-70
2023/12/07 14:34:03;;;;;;;2.93;1.33;;;6.50;99.90;8.80;100927.00;;;;5019021;28;20633;-72
2023/12/07 14:36:47;;;;;;;1.23;1.13;;;6.40;99.90;9.10;100966.00;;;;5031525;28;20190;-73
2023/12/07 14:39:16;;;;;;;4.63;1.63;;;6.40;99.90;8.80;100949.00;;;;5029961;28;20241;-70
2023/12/07 14:41:57;;;;;;;2.27;2.07;;;6.40;99.90;8.50;100963.00;;;;5016694;28;20282;-73
2023/12/07 14:44:32;;;;;;;1.20;1.07;;;6.30;99.90;8.80;100978.00;;;;5013776;28;20235;-73
2023/12/07 14:47:04;;;;;;;2.53;2.13;;;6.40;99.90;8.60;100963.00;;;;5039080;28;20183;-73
2023/12/07 14:49:40;;;;;;;2.73;2.30;;;6.30;99.90;8.80;100964.00;;;;5031949;28;20187;-73
2023/12/07 14:52:09;;;;;;;1.90;1.40;;;6.30;99.90;8.90;100968.00;;;;5012047;28;20261;-73
2023/12/07 14:54:50;;;;;;;2.60;1.80;;;6.40;99.90;8.80;100926.00;;;;5026899;28;20680;-73
2023/12/07 14:57:22;;;;;;;2.97;1.87;;;6.20;99.90;8.90;100930.00;;;;5030142;28;20186;-73
2023/12/07 14:59:55;;;;;;;1.70;1.60;;;6.30;99.90;8.80;100945.00;;;;5019955;28;20638;-73
2023/12/07 15:02:35;;;;;;;2.10;1.43;;;6.40;99.90;8.80;100898.00;;;;5015263;28;20229;-70
2023/12/07 15:05:13;;;;;;;0.87;0.87;;;6.30;99.90;9.20;100944.00;;;;5014443;28;20251;-73
2023/12/07 15:08:00;;;;;;;2.93;2.73;;;6.40;99.90;8.90;100927.00;;;;5027695;28;20677;-73
2023/12/07 15:10:29;;;;;;;1.23;0.90;;;6.40;99.90;9.00;100924.00;;;;5025394;28;20187;-73
2023/12/07 15:12:55;;;;;;;1.40;1.27;;;6.40;99.90;8.70;100913.00;;;;5031795;28;20207;-73
2023/12/07 15:15:29;;;;;;;1.33;1.23;;;6.40;99.90;8.20;100917.00;;;;5029121;28;20314;-73
2023/12/07 15:18:01;;;;;;;2.20;1.47;;;6.30;99.90;8.50;100906.00;;;;5013299;28;20654;-73
2023/12/07 15:20:46;;;;;;;1.20;1.20;;;6.20;99.90;8.90;100867.00;;;;5035173;28;20226;-73
2023/12/07 15:23:18;;;;;;;1.60;1.47;;;6.30;99.90;8.90;100880.00;;;;5025746;28;20235;-73
2023/12/07 15:25:47;;;;;;;2.83;2.60;;;6.30;99.90;9.10;100857.00;;;;5036767;28;20197;-72
2023/12/07 15:28:19;;;;;;;2.47;2.00;;;6.30;99.90;8.80;100872.00;;;;5033730;28;20181;-71
2023/12/07 15:30:51;;;;;;;1.80;1.57;;;6.30;99.90;8.40;100867.00;;;;5018067;28;20187;-71
2023/12/07 15:33:20;;;;;;;2.73;2.17;;;6.20;99.90;8.30;100881.00;;;;5018112;28;20214;-71
2023/12/07 15:35:51;;;;;;;2.53;2.10;;;6.10;99.90;8.30;100871.00;;;;5043757;28;20182;-71
2023/12/07 15:38:31;;;;;;;3.13;1.70;;;6.00;99.90;8.10;100859.00;;;;5035669;28;20277;-71
2023/12/07 15:41:13;;;;;;;2.20;2.10;;;6.00;99.90;8.70;100869.00;;;;5017439;28;20263;-71
2023/12/07 15:43:56;;;;;;;2.60;1.50;;;6.10;99.90;8.60;100866.00;;;;5010844;28;20197;-71
2023/12/07 15:46:29;;;;;;;1.47;1.40;;;6.10;99.90;8.60;100864.00;;;;5024573;28;20245;-71
2023/12/07 15:49:05;;;;;;;4.33;1.43;;;6.00;99.90;8.30;100843.00;;;;5034864;28;20187;-71
2023/12/07 15:51:40;;;;;;;1.50;1.40;;;6.10;99.90;8.60;100838.00;;;;5022180;28;20211;-71
2023/12/07 15:54:17;;;;;;;4.23;2.07;;;6.00;99.90;8.60;100859.00;;;;5033730;28;20189;-71
2023/12/07 15:56:51;;;;;;;5.33;2.00;;;6.10;99.90;8.60;100859.00;;;;5025882;28;20196;-71
2023/12/07 15:59:37;;;;;;;1.63;0.60;;;6.10;99.90;8.90;100857.00;;;;5035640;28;20174;-71
2023/12/07 16:02:09;;;;;;;0.83;0.83;;;6.10;99.90;8.70;100849.00;;;;5030389;28;20214;-71
2023/12/07 16:04:43;;;;;;;5.23;2.83;;;6.10;99.90;8.70;100851.00;;;;5026030;28;20184;-71
2023/12/07 16:07:21;;;;;;;2.23;1.67;;;6.10;99.90;8.40;100845.00;;;;5014992;28;20191;-71
2023/12/07 16:09:55;;;;;;;1.77;1.67;;;6.00;99.90;8.20;100817.00;;;;5017524;28;20186;-71
2023/12/07 16:12:33;;;;;;;1.47;1.23;;;6.00;99.90;8.40;100846.00;;;;5034148;28;20269;-73
2023/12/07 16:15:30;;;;;;;15.23;1.90;;;6.00;99.90;8.50;100833.00;;;;5032067;28;20192;-73
2023/12/07 16:18:10;;;;;;;2.47;1.70;;;5.90;99.90;8.10;100845.00;;;;5035233;28;20247;-71
2023/12/07 16:20:50;;;;;;;2.17;1.90;;;5.80;99.90;8.20;100833.00;;;;5017984;28;20185;-71
2023/12/07 16:23:30;;;;;;;2.83;2.00;;;5.80;99.90;8.30;100846.00;;;;5034087;28;20200;-71
2023/12/07 16:26:02;;;;;;;1.50;1.40;;;5.90;99.90;8.30;100837.00;;;;5023326;28;20194;-72
2023/12/07 16:28:31;;;;;;;3.17;2.40;;;5.80;99.90;8.10;100846.00;;;;5015454;28;20280;-73
2023/12/07 16:31:02;;;;;;;1.60;0.87;;;5.90;99.90;8.30;100836.00;;;;5020812;28;20596;-71
2023/12/07 16:33:31;;;;;;;4.33;3.17;;;5.80;99.90;8.40;100809.00;;;;5031113;28;20221;-71
2023/12/07 16:36:00;;;;;;;0.80;0.80;;;5.90;99.90;8.60;100782.00;;;;5030785;28;20191;-71
2023/12/07 16:39:03;;;;;;;0.73;0.73;;;6.00;99.90;9.20;100822.00;;;;5011680;28;20176;-71
2023/12/07 16:41:42;;;;;;;1.70;1.60;;;6.20;99.90;8.00;100835.00;;;;5045503;28;20661;-71
2023/12/07 16:44:14;;;;;;;3.40;2.90;;;6.00;99.90;8.00;100809.00;;;;5033667;28;20187;-74
2023/12/07 16:46:46;;;;;;;1.10;1.00;;;5.80;99.90;8.40;100818.00;;;;5030222;28;20542;-73
2023/12/07 16:49:20;;;;;;;1.30;1.20;;;5.80;99.90;7.90;100805.00;;;;5017136;28;20185;-71
2023/12/07 16:51:54;;;;;;;1.27;1.17;;;5.70;99.90;8.30;100802.00;;;;5026751;28;20216;-71
2023/12/07 16:54:29;;;;;;;3.97;2.07;;;5.80;99.90;8.30;100800.00;;;;5033461;28;20284;-73
2023/12/07 16:56:58;;;;;;;3.10;2.90;;;5.80;99.90;8.30;100787.00;;;;5031274;28;20276;-71
2023/12/07 16:59:42;;;;;;;1.90;1.80;;;5.80;99.90;8.20;100791.00;;;;5033379;28;20186;-73
2023/12/07 17:02:16;;;;;;;2.20;2.00;;;5.80;99.90;8.00;100782.00;;;;5016175;28;20192;-73
2023/12/07 17:04:50;;;;;;;0.40;0.40;;;5.70;99.90;8.30;100797.00;;;;5021290;28;20283;-73
2023/12/07 17:07:27;;;;;;;3.23;2.13;;;5.80;99.90;8.00;100799.00;;;;5033264;28;20177;-73
2023/12/07 17:10:01;;;;;;;1.07;0.90;;;5.80;99.90;8.60;100789.00;;;;5013442;28;20252;-74
2023/12/07 17:12:51;;;;;;;2.13;2.03;;;5.80;99.90;8.90;100759.00;;;;5031752;28;20232;-73
2023/12/07 17:15:25;;;;;;;15.93;10.37;;;6.00;99.90;8.10;100742.00;;;;5017191;28;20198;-73
2023/12/07 17:17:59;;;;;;;3.17;1.40;;;5.90;99.90;8.20;100779.00;;;;5020455;28;20187;-74
2023/12/07 17:21:14;;;;;;;1.40;1.30;;;5.90;99.90;8.10;100785.00;;;;5012001;28;20262;-74
2023/12/07 17:23:43;;;;;;;3.50;2.07;;;5.80;99.90;8.30;100770.00;;;;5029920;28;20233;-73
2023/12/07 17:26:23;;;;;;;3.07;2.47;;;5.90;99.90;8.50;100783.00;;;;5033283;28;20178;-73
2023/12/07 17:28:49;;;;;;;1.63;1.53;;;5.90;99.90;8.10;100777.00;;;;5019194;28;20184;-73
2023/12/07 17:31:21;;;;;;;4.03;2.90;;;5.80;99.90;8.10;100785.00;;;;5033796;28;20221;-73
2023/12/07 17:34:01;;;;;;;3.17;1.73;;;5.90;99.90;8.10;100772.00;;;;5032415;28;20197;-73
2023/12/07 17:36:38;;;;;;;2.90;1.90;;;5.80;99.90;8.10;100784.00;;;;5029269;28;20194;-74
2023/12/07 17:39:10;;;;;;;1.50;1.10;;;5.90;99.90;8.50;100789.00;;;;5033183;28;20271;-73
2023/12/07 17:41:47;;;;;;;0.93;0.87;;;5.90;99.90;8.40;100789.00;;;;5031513;28;20196;-74
2023/12/07 17:44:30;;;;;;;3.23;2.97;;;6.00;99.90;8.50;100790.00;;;;5032242;28;20277;-74
2023/12/07 17:47:04;;;;;;;1.70;1.20;;;6.00;99.90;8.20;100784.00;;;;5033845;28;20192;-74
2023/12/07 17:49:41;;;;;;;2.33;1.43;;;5.90;99.90;8.30;100792.00;;;;5021543;28;20192;-73
2023/12/07 17:52:20;;;;;;;1.63;1.50;;;6.00;99.90;8.30;100764.00;;;;5029758;28;20202;-73
2023/12/07 17:55:02;;;;;;;2.70;2.03;;;5.90;99.90;8.20;100794.00;;;;5021324;28;20187;-73
2023/12/07 17:57:45;;;;;;;1.80;1.65;;;5.90;99.90;8.40;100777.00;;;;5027550;28;20498;-73
2023/12/07 18:00:23;;;;;;;1.70;1.47;;;5.90;99.90;8.50;100760.00;;;;5030416;28;20664;-71
2023/12/07 18:02:54;;;;;;;4.97;3.30;;;6.00;99.90;7.90;100772.00;;;;5015430;28;20217;-73
2023/12/07 18:05:34;;;;;;;1.80;1.23;;;5.90;99.90;8.20;100762.00;;;;5012662;28;20195;-73
2023/12/07 18:08:06;;;;;;;1.63;1.30;;;5.90;99.90;8.30;100762.00;;;;5025265;28;20193;-73
2023/12/07 18:10:41;;;;;;;3.17;2.60;;;5.90;99.90;8.20;100755.00;;;;5015653;28;20642;-74
2023/12/07 18:13:12;;;;;;;2.70;1.83;;;5.90;99.90;8.20;100771.00;;;;5032989;28;20283;-73
2023/12/07 18:15:47;;;;;;;1.47;1.20;;;6.00;99.90;8.50;100746.00;;;;5015695;28;20186;-73
2023/12/07 18:18:29;;;;;;;1.97;1.77;;;6.00;99.90;8.20;100741.00;;;;5033031;28;20192;-73
2023/12/07 18:21:00;;;;;;;0.83;0.77;;;6.00;99.90;8.40;100718.00;;;;5032886;28;20192;-73
2023/12/07 18:23:34;;;;;;;1.90;1.80;;;6.00;99.90;8.10;100736.00;;;;5032081;28;20190;-73
2023/12/07 18:26:09;;;;;;;5.50;1.77;;;5.90;99.90;8.20;100729.00;;;;5028419;28;20192;-73
2023/12/07 18:28:47;;;;;;;1.23;1.13;;;6.00;99.90;8.60;100729.00;;;;5007230;28;20255;-73
2023/12/07 18:31:25;;;;;;;2.37;1.87;;;6.00;99.90;8.30;100702.00;;;;5023568;28;20214;-73
2023/12/07 18:33:59;;;;;;;2.43;2.23;;;6.00;99.90;8.40;100736.00;;;;5001326;28;20202;-73
2023/12/07 18:36:34;;;;;;;1.60;1.43;;;6.00;99.90;8.40;100699.00;;;;5025154;28;20184;-73
2023/12/07 18:39:08;;;;;;;2.77;2.20;;;6.00;99.90;8.20;100714.00;;;;5032042;28;20255;-73
2023/12/07 18:41:48;;;;;;;1.97;1.87;;;5.90;99.90;8.60;100711.00;;;;5010280;28;20651;-73
2023/12/07 18:44:34;;;;;;;2.37;1.40;;;5.90;99.90;8.40;100705.00;;;;5014132;28;20198;-74
2023/12/07 18:47:10;;;;;;;4.37;2.20;;;5.90;99.90;8.40;100685.00;;;;5027744;28;20192;-73
2023/12/07 18:49:41;;;;;;;3.57;2.47;;;6.00;99.90;8.20;100696.00;;;;5031841;28;20213;-73
2023/12/07 18:52:23;;;;;;;3.33;1.53;;;6.00;99.90;8.30;100688.00;;;;5015415;28;20651;-73
2023/12/07 18:55:20;;;;;;;1.93;1.80;;;5.90;99.90;8.40;100673.00;;;;5028789;28;20201;-74
2023/12/07 18:57:58;;;;;;;2.00;1.77;;;5.90;99.90;8.50;100637.00;;;;5019372;28;20651;-73